createdAt,value
2023-04-02T00:01:47.481Z,10.38
2023-04-02T00:04:22.435Z,11.80
2023-04-02T00:06:54.192Z,12.10
2023-04-02T00:09:27.630Z,12.27
2023-04-02T00:11:55.653Z,11.30
2023-04-02T00:14:26.358Z,12.23
2023-04-02T00:16:55.730Z,12.95
2023-04-02T00:19:30.515Z,14.32
2023-04-02T00:22:00.991Z,14.10
2023-04-02T00:24:30.217Z,15.65
2023-04-02T00:26:57.861Z,14.82
2023-04-02T00:29:25.771Z,15.60
2023-04-02T00:31:54.577Z,14.13
2023-04-02T00:34:24.740Z,16.52
2023-04-02T00:36:53.604Z,17.63
2023-04-02T00:39:24.573Z,15.90
2023-04-02T00:41:58.693Z,16.40
2023-04-02T00:44:32.695Z,14.80
2023-04-02T00:47:09.081Z,16.10
2023-04-02T00:49:40.390Z,16.70
2023-04-02T00:52:11.745Z,15.35
2023-04-02T00:54:45.933Z,15.35
2023-04-02T00:57:18.438Z,17.80
2023-04-02T00:59:55.949Z,16.08
2023-04-02T01:02:30.443Z,15.65
2023-04-02T01:05:00.540Z,16.05
2023-04-02T01:07:48.212Z,15.75
2023-04-02T01:10:34.598Z,15.27
2023-04-02T01:13:17.734Z,14.68
2023-04-02T01:15:52.795Z,15.38
2023-04-02T01:18:50.238Z,13.98
2023-04-02T01:21:33.879Z,13.75
2023-04-02T01:24:05.314Z,14.20
2023-04-02T01:26:44.503Z,13.10
2023-04-02T01:29:15.955Z,12.40
2023-04-02T01:31:46.878Z,11.60
2023-04-02T01:34:17.486Z,11.07
2023-04-02T01:36:59.260Z,10.20
2023-04-02T01:39:39.822Z,9.73
2023-04-02T01:42:16.884Z,9.35
2023-04-02T01:44:49.867Z,10.30
2023-04-02T01:47:20.676Z,10.02
2023-04-02T01:49:48.645Z,11.27
2023-04-02T01:52:20.297Z,11.93
2023-04-02T01:54:48.721Z,11.15
2023-04-02T01:57:17.317Z,11.23
2023-04-02T01:59:46.988Z,10.40
2023-04-02T02:02:15.880Z,10.20
2023-04-02T02:04:45.313Z,10.50
2023-04-02T02:07:17.791Z,10.10
2023-04-02T02:09:50.622Z,10.95
2023-04-02T02:12:18.509Z,11.90
2023-04-02T02:14:52.771Z,10.50
2023-04-02T02:17:29.347Z,9.95
2023-04-02T02:20:00.459Z,8.93
2023-04-02T02:22:31.338Z,10.02
2023-04-02T02:25:01.640Z,8.07
2023-04-02T02:27:46.925Z,7.90
2023-04-02T02:30:21.023Z,7.65
2023-04-02T02:32:56.280Z,6.95
2023-04-02T02:35:29.793Z,6.05
2023-04-02T02:38:09.203Z,7.00
2023-04-02T02:40:41.745Z,5.80
2023-04-02T02:43:13.441Z,6.30
2023-04-02T02:45:44.326Z,8.50
2023-04-02T02:48:14.659Z,8.90
2023-04-02T02:50:43.649Z,8.18
2023-04-02T02:53:19.945Z,7.10
2023-04-02T02:55:50.345Z,7.50
2023-04-02T02:58:27.292Z,7.00
2023-04-02T03:01:04.680Z,7.00
2023-04-02T03:03:35.229Z,7.75
2023-04-02T03:06:08.418Z,7.38
2023-04-02T03:08:44.701Z,7.63
2023-04-02T03:11:23.979Z,7.55
2023-04-02T03:13:56.791Z,7.75
2023-04-02T03:16:32.607Z,6.40
2023-04-02T03:19:06.434Z,6.90
2023-04-02T03:21:40.703Z,7.00
2023-04-02T03:24:16.004Z,6.43
2023-04-02T03:26:50.207Z,5.95
2023-04-02T03:29:23.393Z,6.90
2023-04-02T03:31:57.663Z,6.47
2023-04-02T03:34:29.719Z,5.27
2023-04-02T03:37:00.622Z,7.35
2023-04-02T03:39:37.423Z,7.50
2023-04-02T03:42:10.400Z,7.90
2023-04-02T03:44:45.522Z,8.55
2023-04-02T03:47:20.474Z,9.15
2023-04-02T03:49:55.053Z,8.40
2023-04-02T03:52:26.885Z,10.23
2023-04-02T03:54:58.089Z,11.90
2023-04-02T03:57:31.539Z,12.73
2023-04-02T04:00:05.717Z,12.32
2023-04-02T04:02:46.395Z,14.15
2023-04-02T04:05:25.013Z,13.32
2023-04-02T04:08:01.474Z,12.73
2023-04-02T04:10:31.758Z,11.55
2023-04-02T04:13:04.799Z,11.57
2023-04-02T04:15:36.758Z,13.02
2023-04-02T04:18:19.867Z,13.25
2023-04-02T04:20:56.230Z,13.60
2023-04-02T04:23:31.571Z,12.70
2023-04-02T04:26:09.441Z,13.15
2023-04-02T04:28:46.020Z,14.45
2023-04-02T04:31:20.774Z,13.90
2023-04-02T04:34:02.988Z,13.60
2023-04-02T04:36:37.177Z,14.27
2023-04-02T04:39:15.445Z,14.05
2023-04-02T04:41:49.298Z,16.42
2023-04-02T04:44:23.888Z,15.52
2023-04-02T04:47:00.897Z,15.23
2023-04-02T04:49:35.331Z,15.95
2023-04-02T04:52:10.514Z,15.75
2023-04-02T04:54:40.341Z,15.25
2023-04-02T04:57:24.971Z,15.18
2023-04-02T04:59:58.753Z,15.25
2023-04-02T05:02:34.755Z,15.18
2023-04-02T05:05:04.965Z,16.65
2023-04-02T05:07:44.754Z,16.45
2023-04-02T05:10:20.582Z,17.95
2023-04-02T05:12:55.443Z,19.35
2023-04-02T05:15:29.931Z,20.40
2023-04-02T05:18:18.813Z,18.60
2023-04-02T05:20:53.104Z,21.30
2023-04-02T05:23:27.154Z,20.30
2023-04-02T05:26:04.531Z,20.27
2023-04-02T05:28:39.542Z,19.13
2023-04-02T05:31:11.997Z,21.65
2023-04-02T05:33:41.028Z,20.45
2023-04-02T05:36:19.245Z,21.85
2023-04-02T05:38:52.287Z,20.58
2023-04-02T05:41:31.409Z,22.55
2023-04-02T05:44:08.527Z,22.92
2023-04-02T05:46:38.299Z,21.27
2023-04-02T05:49:16.127Z,21.05
2023-04-02T05:51:50.276Z,22.17
2023-04-02T05:54:23.804Z,21.33
2023-04-02T05:56:59.802Z,20.23
2023-04-02T05:59:32.920Z,19.75
2023-04-02T06:02:07.231Z,20.02
2023-04-02T06:04:47.425Z,18.67
2023-04-02T06:07:20.634Z,19.98
2023-04-02T06:09:57.417Z,21.05
2023-04-02T06:12:31.559Z,19.00
2023-04-02T06:15:01.229Z,19.50
2023-04-02T06:17:34.604Z,21.17
2023-04-02T06:20:04.798Z,19.27
2023-04-02T06:22:37.798Z,18.08
2023-04-02T06:25:13.092Z,18.67
2023-04-02T06:27:44.808Z,19.42
2023-04-02T06:30:18.426Z,17.50
2023-04-02T06:32:48.883Z,18.80
2023-04-02T06:35:17.882Z,18.25
2023-04-02T06:37:57.306Z,16.75
2023-04-02T06:40:42.877Z,16.95
2023-04-02T06:43:33.078Z,15.32
2023-04-02T06:46:25.788Z,14.52
2023-04-02T06:49:20.068Z,13.75
2023-04-02T06:51:51.906Z,15.60
2023-04-02T06:54:21.901Z,14.00
2023-04-02T06:56:57.055Z,13.18
2023-04-02T06:59:29.244Z,13.60
2023-04-02T07:02:03.355Z,13.45
2023-04-02T07:04:31.680Z,13.35
2023-04-02T07:06:59.531Z,14.00
2023-04-02T07:09:32.849Z,11.93
2023-04-02T07:12:03.726Z,12.90
2023-04-02T07:14:32.865Z,11.80
2023-04-02T07:17:01.262Z,13.27
2023-04-02T07:19:28.930Z,14.50
2023-04-02T07:21:58.833Z,13.95
2023-04-02T07:24:33.308Z,13.70
2023-04-02T07:27:00.974Z,12.88
2023-04-02T07:29:28.650Z,12.50
2023-04-02T07:31:56.335Z,10.75
2023-04-02T07:34:24.020Z,8.98
2023-04-02T07:36:51.689Z,9.10
2023-04-02T07:39:19.738Z,9.10
2023-04-02T07:41:56.649Z,8.88
2023-04-02T07:44:24.340Z,9.55
2023-04-02T07:46:52.079Z,8.00
2023-04-02T07:49:19.818Z,7.65
2023-04-02T07:51:47.459Z,8.48
2023-04-02T07:54:15.392Z,6.75
2023-04-02T07:56:42.993Z,7.70
2023-04-02T07:59:12.158Z,8.32
2023-04-02T08:01:40.134Z,6.70
2023-04-02T08:04:08.359Z,7.63
2023-04-02T08:06:36.107Z,7.15
2023-04-02T08:09:03.949Z,7.70
2023-04-02T08:11:32.025Z,6.80
2023-04-02T08:13:59.776Z,6.97
2023-04-02T08:16:28.960Z,7.20
2023-04-02T08:18:56.654Z,7.10
2023-04-02T08:21:25.335Z,7.70
2023-04-02T08:23:52.979Z,6.75
2023-04-02T08:26:20.963Z,6.25
2023-04-02T08:28:48.598Z,6.65
2023-04-02T08:31:17.142Z,6.55
2023-04-02T08:33:46.263Z,7.05
2023-04-02T08:36:17.438Z,6.40
2023-04-02T08:38:45.447Z,6.57
2023-04-02T08:41:23.188Z,6.50
2023-04-02T08:44:09.490Z,6.68
2023-04-02T08:46:44.680Z,5.53
2023-04-02T08:49:17.292Z,5.93
2023-04-02T08:51:46.966Z,5.35
2023-04-02T08:54:22.641Z,5.30
2023-04-02T08:56:56.799Z,5.40
2023-04-02T08:59:32.049Z,5.03
2023-04-02T09:02:16.474Z,4.55
2023-04-02T09:04:45.681Z,5.07
2023-04-02T09:07:15.342Z,5.57
2023-04-02T09:09:43.522Z,4.47
2023-04-02T09:12:18.898Z,4.38
2023-04-02T09:14:59.887Z,5.10
2023-04-02T09:17:29.173Z,5.00
2023-04-02T09:20:08.878Z,3.88
2023-04-02T09:22:36.623Z,4.35
2023-04-02T09:25:12.694Z,4.75
2023-04-02T09:27:40.612Z,4.57
2023-04-02T09:30:21.596Z,4.30
2023-04-02T09:32:51.682Z,3.30
2023-04-02T09:35:26.500Z,4.20
2023-04-02T09:38:18.290Z,4.05
2023-04-02T09:40:49.639Z,4.18
2023-04-02T09:43:19.669Z,4.15
2023-04-02T09:45:58.302Z,3.75
2023-04-02T09:48:31.532Z,3.63
2023-04-02T09:51:15.257Z,4.22
2023-04-02T09:53:45.769Z,3.75
2023-04-02T09:56:16.741Z,3.38
2023-04-02T09:58:46.726Z,4.30
2023-04-02T10:01:30.872Z,3.72
2023-04-02T10:03:59.628Z,3.80
2023-04-02T10:06:30.278Z,3.28
2023-04-02T10:08:58.503Z,2.97
2023-04-02T10:11:36.446Z,3.25
2023-04-02T10:14:17.059Z,3.42
2023-04-02T10:16:49.580Z,2.90
2023-04-02T10:19:26.329Z,3.88
2023-04-02T10:21:56.686Z,3.50
2023-04-02T10:24:24.653Z,3.33
2023-04-02T10:27:03.072Z,3.25
2023-04-02T10:29:53.524Z,3.38
2023-04-02T10:32:25.867Z,2.75
2023-04-02T10:34:59.702Z,3.00
2023-04-02T10:37:54.567Z,3.58
2023-04-02T10:40:27.912Z,3.28
2023-04-02T10:43:08.211Z,2.90
2023-04-02T10:45:44.356Z,3.15
2023-04-02T10:48:21.529Z,3.20
2023-04-02T10:50:56.485Z,3.50
2023-04-02T10:53:35.356Z,3.05
2023-04-02T10:56:08.805Z,3.10
2023-04-02T10:58:43.967Z,3.13
2023-04-02T11:01:18.610Z,3.20
2023-04-02T11:03:49.684Z,3.30
2023-04-02T11:06:21.957Z,3.55
2023-04-02T11:08:53.122Z,3.38
2023-04-02T11:11:24.494Z,2.90
2023-04-02T11:13:58.238Z,2.83
2023-04-02T11:16:27.155Z,3.35
2023-04-02T11:19:23.700Z,2.60
2023-04-02T11:21:59.310Z,3.58
2023-04-02T11:24:38.741Z,3.15
2023-04-02T11:27:19.258Z,4.20
2023-04-02T11:29:49.621Z,2.92
2023-04-02T11:32:31.743Z,3.67
2023-04-02T11:35:26.626Z,3.53
2023-04-02T11:37:57.737Z,3.10
2023-04-02T11:40:46.642Z,3.28
2023-04-02T11:43:50.251Z,3.03
2023-04-02T11:46:40.538Z,2.83
2023-04-02T11:49:37.553Z,3.33
2023-04-02T11:52:19.862Z,3.95
2023-04-02T11:54:56.129Z,3.33
2023-04-02T11:57:43.815Z,2.60
2023-04-02T12:00:30.877Z,2.40
2023-04-02T12:03:15.195Z,3.22
2023-04-02T12:05:54.522Z,2.65
2023-04-02T12:08:29.654Z,3.40
2023-04-02T12:10:59.412Z,3.30
2023-04-02T12:13:55.082Z,2.92
2023-04-02T12:16:24.132Z,2.40
2023-04-02T12:18:54.938Z,2.67
2023-04-02T12:21:25.062Z,2.55
2023-04-02T12:23:56.016Z,2.50
2023-04-02T12:26:38.830Z,2.58
2023-04-02T12:29:22.939Z,2.50
2023-04-02T12:31:50.860Z,2.60
2023-04-02T12:34:20.626Z,2.55
2023-04-02T12:37:02.610Z,1.83
2023-04-02T12:39:31.235Z,2.30
2023-04-02T12:41:59.528Z,2.60
2023-04-02T12:44:30.532Z,2.65
2023-04-02T12:46:59.900Z,3.80
2023-04-02T12:49:36.773Z,3.70
2023-04-02T12:52:07.460Z,5.45
2023-04-02T12:54:39.136Z,3.80
2023-04-02T12:57:32.186Z,6.88
2023-04-02T13:00:05.929Z,2.67
2023-04-02T13:02:43.813Z,2.63
2023-04-02T13:05:12.325Z,3.40
2023-04-02T13:07:41.878Z,2.03
2023-04-02T13:10:24.438Z,2.15
2023-04-02T13:12:56.273Z,2.08
2023-04-02T13:15:28.494Z,2.35
2023-04-02T13:18:06.683Z,2.75
2023-04-02T13:20:36.661Z,2.45
2023-04-02T13:23:26.020Z,2.70
2023-04-02T13:25:53.864Z,2.60
2023-04-02T13:28:21.904Z,1.95
2023-04-02T13:30:51.088Z,2.55
2023-04-02T13:33:18.986Z,2.95
2023-04-02T13:35:46.950Z,2.00
2023-04-02T13:38:14.855Z,2.20
2023-04-02T13:40:42.559Z,2.60
2023-04-02T13:43:17.817Z,2.72
2023-04-02T13:45:49.931Z,2.83
2023-04-02T13:48:19.135Z,2.42
2023-04-02T13:50:47.114Z,2.50
2023-04-02T13:53:22.960Z,2.45
2023-04-02T13:55:51.543Z,2.50
2023-04-02T13:58:19.601Z,2.70
2023-04-02T14:00:48.264Z,2.13
2023-04-02T14:03:21.730Z,1.77
2023-04-02T14:05:57.034Z,2.30
2023-04-02T14:08:35.688Z,2.42
2023-04-02T14:11:14.623Z,2.72
2023-04-02T14:14:10.530Z,2.20
2023-04-02T14:16:54.894Z,1.88
2023-04-02T14:19:38.825Z,2.20
2023-04-02T14:22:18.158Z,2.03
2023-04-02T14:24:58.253Z,2.85
2023-04-02T14:27:37.911Z,2.40
2023-04-02T14:30:16.288Z,2.28
2023-04-02T14:32:51.397Z,2.13
2023-04-02T14:35:28.262Z,2.30
2023-04-02T14:38:02.115Z,1.95
2023-04-02T14:40:37.892Z,2.25
2023-04-02T14:43:12.445Z,2.30
2023-04-02T14:45:57.165Z,2.50
2023-04-02T14:48:36.672Z,2.33
2023-04-02T14:51:13.287Z,2.20
2023-04-02T14:53:52.501Z,2.03
2023-04-02T14:56:22.745Z,2.63
2023-04-02T14:58:54.647Z,1.58
2023-04-02T15:01:28.154Z,2.22
2023-04-02T15:04:00.373Z,1.90
2023-04-02T15:06:37.769Z,2.53
2023-04-02T15:09:11.594Z,2.10
2023-04-02T15:11:42.741Z,2.38
2023-04-02T15:14:18.371Z,2.00
2023-04-02T15:16:46.401Z,2.25
2023-04-02T15:19:16.958Z,2.85
2023-04-02T15:22:00.997Z,2.40
2023-04-02T15:24:44.622Z,2.22
2023-04-02T15:27:26.965Z,2.20
2023-04-02T15:30:00.815Z,2.25
2023-04-02T15:32:36.217Z,2.40
2023-04-02T15:35:23.041Z,2.40
2023-04-02T15:38:00.752Z,2.33
2023-04-02T15:40:45.590Z,2.30
2023-04-02T15:43:20.563Z,1.83
2023-04-02T15:46:16.267Z,2.03
2023-04-02T15:49:14.179Z,2.30
2023-04-02T15:51:54.346Z,2.30
2023-04-02T15:54:36.166Z,2.20
2023-04-02T15:57:14.661Z,2.20
2023-04-02T16:00:00.632Z,2.40
2023-04-02T16:02:47.073Z,2.10
2023-04-02T16:05:22.530Z,2.00
2023-04-02T16:08:17.888Z,2.30
2023-04-02T16:10:47.100Z,2.30
2023-04-02T16:13:19.833Z,1.90
2023-04-02T16:15:53.937Z,2.15
2023-04-02T16:18:36.053Z,2.28
2023-04-02T16:21:04.617Z,2.30
2023-04-02T16:23:36.492Z,2.40
2023-04-02T16:26:19.615Z,2.10
2023-04-02T16:28:56.455Z,2.15
2023-04-02T16:31:29.651Z,2.03
2023-04-02T16:34:05.245Z,2.17
2023-04-02T16:36:59.085Z,1.95
2023-04-02T16:39:41.517Z,2.70
2023-04-02T16:42:24.323Z,2.42
2023-04-02T16:45:04.379Z,2.28
2023-04-02T16:47:55.152Z,2.28
2023-04-02T16:50:37.678Z,1.75
2023-04-02T16:53:19.039Z,1.92
2023-04-02T16:56:01.526Z,2.15
2023-04-02T16:58:43.550Z,2.35
2023-04-02T17:01:20.883Z,2.60
2023-04-02T17:04:02.207Z,2.28
2023-04-02T17:06:41.418Z,2.88
2023-04-02T17:09:16.747Z,2.03
2023-04-02T17:11:49.951Z,2.13
2023-04-02T17:14:27.805Z,2.30
2023-04-02T17:17:01.602Z,2.78
2023-04-02T17:19:31.039Z,2.28
2023-04-02T17:22:01.856Z,2.45
2023-04-02T17:24:34.261Z,2.08
2023-04-02T17:27:07.754Z,2.30
2023-04-02T17:29:39.911Z,1.98
2023-04-02T17:32:17.860Z,2.95
2023-04-02T17:34:45.518Z,1.90
2023-04-02T17:37:23.465Z,2.53
2023-04-02T17:40:05.634Z,2.05
2023-04-02T17:42:45.718Z,2.00
2023-04-02T17:45:20.602Z,2.33
2023-04-02T17:47:58.840Z,2.10
2023-04-02T17:50:45.985Z,1.95
2023-04-02T17:53:23.992Z,2.20
2023-04-02T17:56:01.655Z,2.28
2023-04-02T17:58:50.636Z,2.35
2023-04-02T18:01:26.326Z,1.95
2023-04-02T18:04:05.587Z,2.95
2023-04-02T18:06:38.148Z,2.63
2023-04-02T18:09:25.677Z,2.47
2023-04-02T18:12:02.832Z,2.45
2023-04-02T18:14:42.623Z,2.40
2023-04-02T18:17:20.550Z,2.42
2023-04-02T18:19:55.063Z,2.50
2023-04-02T18:22:31.290Z,2.05
2023-04-02T18:25:16.285Z,2.63
2023-04-02T18:28:00.530Z,2.85
2023-04-02T18:30:36.293Z,3.17
2023-04-02T18:33:32.282Z,3.35
2023-04-02T18:36:07.296Z,2.15
2023-04-02T18:38:43.805Z,2.50
2023-04-02T18:41:33.898Z,2.00
2023-04-02T18:44:16.309Z,2.50
2023-04-02T18:46:49.314Z,2.30
2023-04-02T18:49:28.559Z,2.40
2023-04-02T18:51:59.818Z,1.98
2023-04-02T18:54:33.135Z,2.90
2023-04-02T18:57:03.644Z,2.85
2023-04-02T18:59:42.072Z,2.10
2023-04-02T19:02:41.222Z,2.90
2023-04-02T19:05:23.276Z,3.15
2023-04-02T19:07:52.842Z,2.90
2023-04-02T19:10:29.415Z,2.70
2023-04-02T19:12:57.112Z,2.40
2023-04-02T19:15:32.178Z,2.83
2023-04-02T19:18:12.758Z,4.20
2023-04-02T19:20:47.315Z,4.13
2023-04-02T19:23:28.133Z,3.45
2023-04-02T19:26:01.625Z,2.95
2023-04-02T19:28:34.093Z,3.28
2023-04-02T19:31:14.819Z,3.50
2023-04-02T19:33:49.317Z,3.00
2023-04-02T19:36:34.623Z,3.42
2023-04-02T19:39:18.154Z,3.50
2023-04-02T19:41:49.085Z,3.33
2023-04-02T19:44:17.918Z,3.30
2023-04-02T19:46:46.274Z,3.22
2023-04-02T19:49:16.753Z,3.55
2023-04-02T19:51:45.901Z,3.50
2023-04-02T19:54:13.672Z,3.90
2023-04-02T19:56:42.351Z,4.35
2023-04-02T19:59:18.261Z,4.25
2023-04-02T20:01:46.940Z,3.20
2023-04-02T20:04:15.120Z,3.90
2023-04-02T20:06:43.189Z,3.70
2023-04-02T20:09:12.333Z,3.50
2023-04-02T20:11:40.304Z,3.65
2023-04-02T20:14:08.006Z,3.97
2023-04-02T20:16:36.858Z,3.28
2023-04-02T20:19:04.565Z,4.35
2023-04-02T20:21:37.930Z,3.70
2023-04-02T20:24:06.431Z,4.10
2023-04-02T20:26:36.099Z,4.05
2023-04-02T20:29:03.825Z,4.63
2023-04-02T20:31:31.648Z,6.65
2023-04-02T20:34:02.438Z,4.90
2023-04-02T20:36:30.304Z,4.55
2023-04-02T20:38:58.578Z,5.05
2023-04-02T20:41:26.533Z,5.80
2023-04-02T20:43:55.633Z,5.50
2023-04-02T20:46:23.414Z,6.00
2023-04-02T20:48:51.088Z,4.85
2023-04-02T20:51:19.015Z,5.15
2023-04-02T20:53:47.742Z,5.85
2023-04-02T20:56:17.323Z,5.85
2023-04-02T20:58:45.604Z,5.47
2023-04-02T21:01:19.163Z,6.47
2023-04-02T21:03:47.480Z,5.68
2023-04-02T21:06:17.005Z,5.93
2023-04-02T21:08:44.945Z,6.55
2023-04-02T21:11:12.797Z,5.97
2023-04-02T21:13:43.646Z,6.70
2023-04-02T21:16:17.712Z,6.85
2023-04-02T21:18:45.800Z,6.60
2023-04-02T21:21:14.448Z,7.18
2023-04-02T21:23:43.772Z,6.63
2023-04-02T21:26:13.501Z,6.03
2023-04-02T21:28:41.491Z,6.78
2023-04-02T21:31:11.438Z,8.90
2023-04-02T21:33:42.816Z,7.72
2023-04-02T21:36:12.926Z,7.57
2023-04-02T21:38:43.643Z,8.05
2023-04-02T21:41:16.270Z,7.10
2023-04-02T21:43:45.842Z,6.38
2023-04-02T21:46:13.545Z,7.00
2023-04-02T21:48:42.748Z,7.78
2023-04-02T21:51:12.126Z,6.38
2023-04-02T21:53:40.245Z,6.93
2023-04-02T21:56:10.015Z,7.40
2023-04-02T21:58:37.778Z,8.50
2023-04-02T22:01:11.207Z,7.72
2023-04-02T22:03:43.853Z,7.63
2023-04-02T22:06:13.620Z,6.47
2023-04-02T22:08:42.745Z,7.88
2023-04-02T22:11:12.453Z,8.20
2023-04-02T22:13:40.945Z,7.80
2023-04-02T22:16:11.705Z,7.80
2023-04-02T22:18:40.246Z,8.02
2023-04-02T22:21:09.870Z,8.70
2023-04-02T22:23:37.747Z,9.70
2023-04-02T22:26:07.366Z,8.85
2023-04-02T22:28:35.949Z,10.27
2023-04-02T22:31:06.550Z,10.13
2023-04-02T22:33:35.542Z,10.30
2023-04-02T22:36:03.419Z,9.00
2023-04-02T22:38:33.512Z,9.13
2023-04-02T22:41:05.766Z,9.75
2023-04-02T22:43:33.429Z,9.63
2023-04-02T22:46:01.311Z,8.85
2023-04-02T22:48:29.001Z,8.93
2023-04-02T22:50:56.654Z,9.15
2023-04-02T22:53:24.500Z,8.50
2023-04-02T22:55:54.101Z,9.90
2023-04-02T22:58:22.545Z,10.40
2023-04-02T23:00:50.373Z,9.48
2023-04-02T23:03:18.032Z,9.50
2023-04-02T23:05:47.017Z,9.68
2023-04-02T23:08:14.708Z,8.27
2023-04-02T23:10:42.349Z,9.00
2023-04-02T23:13:11.569Z,9.75
2023-04-02T23:15:39.224Z,8.35
2023-04-02T23:18:07.121Z,8.32
2023-04-02T23:20:35.079Z,8.25
2023-04-02T23:23:02.898Z,9.70
2023-04-02T23:25:30.523Z,9.65
2023-04-02T23:27:58.160Z,9.95
2023-04-02T23:30:27.201Z,8.55
2023-04-02T23:32:54.895Z,9.00
2023-04-02T23:35:22.545Z,8.90
2023-04-02T23:37:50.613Z,10.05
2023-04-02T23:40:18.499Z,9.23
2023-04-02T23:42:46.209Z,11.00
2023-04-02T23:45:13.875Z,11.07
2023-04-02T23:47:42.996Z,9.68
2023-04-02T23:50:11.478Z,9.45
2023-04-02T23:52:39.179Z,9.75
2023-04-02T23:55:07.377Z,9.45
2023-04-02T23:57:35.071Z,9.85
